Aviation Digital Data Service (ADDS)

Output produced by TAFs form (1006 UTC 23 October 2017)
found at http://aviationweather.gov/adds/tafs/
 
KAMA 230535Z 2306/2406 VRB06KT P6SM SKC 
     FM231300 29013G18KT P6SM SKC 
     FM231900 02020G30KT P6SM SKC 
     FM240300 36008KT P6SM BKN100